Terminal Aerodrome Forecast
Issued by NWS

Home | Current Version | Previous Version | Graphics & Text | Print | Product List | Glossary On
Versions: 1 2 3 4 5 6 7 8 9 10 11 12 13 14
000
FTUS43 KFGF 241500 AAA
TAFBJI
TAF AMD
KBJI 241536Z 2416/2512 26005KT P6SM OVC002
     FM241800 25005KT P6SM OVC005
     FM242100 22006KT P6SM OVC015=

USA.gov is the U.S. government's official web portal to all federal, state and local government web resources and services.